Airfield :
LOGIN :

Register | Disclaimer

   EN    FR    IT 

 










Legend :    VFR   Marginal VFR   IFR   Intensive IFR   Very Intensive IFR
Visi :
Ceiling :
>= 8 km
>= 3000ft
5 to 8 km
1000 to 3000 ft
1500m to 5 km
500 to 1000 ft
800 to 1500m
200 to 500 ft
< 800m
< 200 ft
Symbols :   Thunderstorms  Fog  Heavy snow  Heavy precipitations  Wind > 20 kt
SIGMETs :     Misc.  Thunderstorms  Icing  Turbulence  Mountain Waves  Volcanic Ashes







- Airport Elevation : 348 ft
- IATA code : STN
- Download approach charts


EGSS - London Stansted

CURRENT METAR :
  • 110650Z AUTO 03014KT 9999 -RA SCT007 SCT017 BKN030 02/01 Q0980

EXPIRED METARs :
  • 110620Z AUTO 03013KT 9999 NCD 02/01 Q0980
  • 110550Z AUTO 03012KT 9999 OVC046 01/01 Q0980
  • 110520Z AUTO 03011KT 9999 SCT027 BKN033 01/01 Q0979
  • 110450Z 03012KT 9999 SCT031 01/01 Q0979
  • 110420Z 03009KT 7000 BKN002 00/00 Q0980

TAF TAF EGSS
Valid from the 11 at 06:00 until the 12 at 12:00 UTC


110504Z 1106/1212 03014KT 9999 FEW002
TEMPO 1106/1114 5000 BR BKN002
PROB30
TEMPO 1106/1108 0300 FG FZFG BKN001
PROB30
TEMPO 1108/1112 02015G25KT 0800 SN BKN001
BECMG 1112/1115 33012KT
BECMG 1200/1203 27008KT
PROB30 1206/1212 2000 BR BKN002
ATIS : +44 1279 669 325
No reported NOTAMs for that airfield.
2 SIGMETs reported for the London FIR (EGTT) :
 
Severe turbulence
EGTT SIGMET 03 VALID 110700/111000 EGRR
EGTT LONDON FIR SEV TURB FCST WI N5113 W00521 - N5342 W00209 - N5446 E00127 - N5445 E00430 - N5358 E00248 - N5306 W00017 - N5112 W00305 - N4956 W00221 - N4919 W00531 - N5113 W00521 FL200/340 MOV NNE 20KT WKN=
Severe turbulence
EGTT SIGMET 02 VALID 110600/111000 EGRR
EGTT LONDON FIR SEV TURB FCST S OF N5030 AND W OF W00050 SFC/FL060 MOV ENE 30KT NC=



MET'MAP, your aeronautical weather chart ! - Copyright ORBIFLY December 2007 - Disclaimer

ORBIFLY MET'MAP TEAM :

Programming & Development : Alexandra Zaïnal
Concept & Development : Baudouin d'Aumeries
Co-Development & Prog : Marc-Olivier Méhu
Technical & hardware support : Manuel Goepfert

Contact : metmap@orbifly.com




SOURCES & CREDITS :

   NOAA